sensor_id;sensor_type;location;lat;lon;timestamp;P1;durP1;ratioP1;P2;durP2;ratioP2
71383;SDS011;67558;52.166;5.004;2023-03-23T00:01:26;7.25;;;6.75;;
71383;SDS011;67558;52.166;5.004;2023-03-23T00:03:56;7.28;;;6.68;;
71383;SDS011;67558;52.166;5.004;2023-03-23T00:06:24;7.97;;;7.18;;
71383;SDS011;67558;52.166;5.004;2023-03-23T00:08:52;7.68;;;6.95;;
71383;SDS011;67558;52.166;5.004;2023-03-23T00:11:26;6.47;;;5.88;;
71383;SDS011;67558;52.166;5.004;2023-03-23T00:13:57;6.03;;;5.63;;
71383;SDS011;67558;52.166;5.004;2023-03-23T00:16:27;7.50;;;5.95;;
71383;SDS011;67558;52.166;5.004;2023-03-23T00:18:58;7.13;;;6.43;;
71383;SDS011;67558;52.166;5.004;2023-03-23T00:21:26;5.38;;;4.95;;
71383;SDS011;67558;52.166;5.004;2023-03-23T00:24:02;6.28;;;5.78;;
71383;SDS011;67558;52.166;5.004;2023-03-23T00:26:34;6.05;;;5.55;;
71383;SDS011;67558;52.166;5.004;2023-03-23T00:29:02;6.97;;;6.45;;
71383;SDS011;67558;52.166;5.004;2023-03-23T00:31:29;6.25;;;5.65;;
71383;SDS011;67558;52.166;5.004;2023-03-23T00:33:58;5.82;;;5.35;;
71383;SDS011;67558;52.166;5.004;2023-03-23T00:36:26;6.78;;;5.60;;
71383;SDS011;67558;52.166;5.004;2023-03-23T00:38:53;7.25;;;5.68;;
71383;SDS011;67558;52.166;5.004;2023-03-23T00:41:19;6.30;;;5.88;;
71383;SDS011;67558;52.166;5.004;2023-03-23T00:43:46;7.80;;;6.55;;
71383;SDS011;67558;52.166;5.004;2023-03-23T00:46:15;6.20;;;5.72;;
71383;SDS011;67558;52.166;5.004;2023-03-23T00:48:41;6.25;;;5.78;;
71383;SDS011;67558;52.166;5.004;2023-03-23T00:51:11;5.40;;;4.90;;
71383;SDS011;67558;52.166;5.004;2023-03-23T00:53:37;6.95;;;6.35;;
71383;SDS011;67558;52.166;5.004;2023-03-23T00:56:04;5.97;;;5.47;;
71383;SDS011;67558;52.166;5.004;2023-03-23T00:58:31;6.60;;;5.95;;
71383;SDS011;67558;52.166;5.004;2023-03-23T01:00:57;7.10;;;6.55;;
71383;SDS011;67558;52.166;5.004;2023-03-23T01:03:23;5.90;;;5.40;;
71383;SDS011;67558;52.166;5.004;2023-03-23T01:05:50;5.68;;;5.13;;
71383;SDS011;67558;52.166;5.004;2023-03-23T01:08:17;6.35;;;5.82;;
71383;SDS011;67558;52.166;5.004;2023-03-23T01:10:44;4.78;;;4.38;;
71383;SDS011;67558;52.166;5.004;2023-03-23T01:13:11;5.93;;;5.40;;
71383;SDS011;67558;52.166;5.004;2023-03-23T01:15:37;6.32;;;5.53;;
71383;SDS011;67558;52.166;5.004;2023-03-23T01:18:03;6.80;;;6.20;;
71383;SDS011;67558;52.166;5.004;2023-03-23T01:20:29;6.22;;;5.63;;
71383;SDS011;67558;52.166;5.004;2023-03-23T01:22:56;7.53;;;7.10;;
71383;SDS011;67558;52.166;5.004;2023-03-23T01:25:28;5.97;;;4.95;;
71383;SDS011;67558;52.166;5.004;2023-03-23T01:27:55;6.03;;;5.47;;
71383;SDS011;67558;52.166;5.004;2023-03-23T01:30:21;6.68;;;5.97;;
71383;SDS011;67558;52.166;5.004;2023-03-23T01:32:47;7.03;;;5.93;;
71383;SDS011;67558;52.166;5.004;2023-03-23T01:35:13;7.88;;;7.18;;
71383;SDS011;67558;52.166;5.004;2023-03-23T01:37:38;6.05;;;5.53;;
71383;SDS011;67558;52.166;5.004;2023-03-23T01:40:04;5.38;;;4.93;;
71383;SDS011;67558;52.166;5.004;2023-03-23T01:42:32;6.25;;;5.85;;
71383;SDS011;67558;52.166;5.004;2023-03-23T01:47:44;5.18;;;4.65;;
71383;SDS011;67558;52.166;5.004;2023-03-23T01:50:11;6.60;;;6.13;;
71383;SDS011;67558;52.166;5.004;2023-03-23T01:52:36;5.97;;;5.57;;
71383;SDS011;67558;52.166;5.004;2023-03-23T01:55:02;6.50;;;5.90;;
71383;SDS011;67558;52.166;5.004;2023-03-23T01:57:28;6.00;;;5.50;;
71383;SDS011;67558;52.166;5.004;2023-03-23T01:59:54;7.10;;;5.43;;
71383;SDS011;67558;52.166;5.004;2023-03-23T02:02:23;5.20;;;4.80;;
71383;SDS011;67558;52.166;5.004;2023-03-23T02:04:50;6.15;;;5.65;;
71383;SDS011;67558;52.166;5.004;2023-03-23T02:07:17;6.15;;;5.78;;
71383;SDS011;67558;52.166;5.004;2023-03-23T02:09:45;5.70;;;5.28;;
71383;SDS011;67558;52.166;5.004;2023-03-23T02:12:10;5.97;;;5.57;;
71383;SDS011;67558;52.166;5.004;2023-03-23T02:14:36;5.85;;;5.18;;
71383;SDS011;67558;52.166;5.004;2023-03-23T02:17:07;5.10;;;4.88;;
71383;SDS011;67558;52.166;5.004;2023-03-23T02:22:39;5.38;;;4.97;;
71383;SDS011;67558;52.166;5.004;2023-03-23T02:25:23;5.60;;;5.10;;
71383;SDS011;67558;52.166;5.004;2023-03-23T02:28:21;4.60;;;4.30;;
71383;SDS011;67558;52.166;5.004;2023-03-23T02:31:05;5.45;;;5.05;;
71383;SDS011;67558;52.166;5.004;2023-03-23T02:38:53;5.25;;;4.88;;
71383;SDS011;67558;52.166;5.004;2023-03-23T02:41:34;5.35;;;4.95;;
71383;SDS011;67558;52.166;5.004;2023-03-23T02:44:05;5.35;;;4.95;;
71383;SDS011;67558;52.166;5.004;2023-03-23T02:46:32;5.85;;;5.35;;
71383;SDS011;67558;52.166;5.004;2023-03-23T02:49:00;7.15;;;6.45;;
71383;SDS011;67558;52.166;5.004;2023-03-23T02:51:28;5.28;;;4.93;;
71383;SDS011;67558;52.166;5.004;2023-03-23T02:53:54;5.35;;;4.88;;
71383;SDS011;67558;52.166;5.004;2023-03-23T02:56:21;6.05;;;5.60;;
71383;SDS011;67558;52.166;5.004;2023-03-23T02:58:49;6.05;;;5.68;;
71383;SDS011;67558;52.166;5.004;2023-03-23T03:03:59;5.35;;;5.05;;
71383;SDS011;67558;52.166;5.004;2023-03-23T03:12:17;6.95;;;4.93;;
71383;SDS011;67558;52.166;5.004;2023-03-23T03:15:09;5.13;;;4.57;;
71383;SDS011;67558;52.166;5.004;2023-03-23T03:17:32;6.10;;;5.00;;
71383;SDS011;67558;52.166;5.004;2023-03-23T03:20:04;6.72;;;6.20;;
71383;SDS011;67558;52.166;5.004;2023-03-23T03:22:35;5.47;;;5.18;;
71383;SDS011;67558;52.166;5.004;2023-03-23T03:25:03;5.10;;;4.68;;
71383;SDS011;67558;52.166;5.004;2023-03-23T03:27:31;5.60;;;5.20;;
71383;SDS011;67558;52.166;5.004;2023-03-23T03:29:57;8.98;;;5.35;;
71383;SDS011;67558;52.166;5.004;2023-03-23T03:32:30;4.57;;;4.18;;
71383;SDS011;67558;52.166;5.004;2023-03-23T03:35:03;4.93;;;4.53;;
71383;SDS011;67558;52.166;5.004;2023-03-23T03:37:37;7.15;;;5.53;;
71383;SDS011;67558;52.166;5.004;2023-03-23T03:40:06;5.20;;;4.75;;
71383;SDS011;67558;52.166;5.004;2023-03-23T03:42:39;5.45;;;5.07;;
71383;SDS011;67558;52.166;5.004;2023-03-23T03:45:06;4.95;;;4.50;;
71383;SDS011;67558;52.166;5.004;2023-03-23T03:47:34;5.57;;;5.07;;
71383;SDS011;67558;52.166;5.004;2023-03-23T03:49:59;5.43;;;5.07;;
71383;SDS011;67558;52.166;5.004;2023-03-23T03:52:25;6.20;;;5.70;;
71383;SDS011;67558;52.166;5.004;2023-03-23T03:54:52;8.32;;;7.82;;
71383;SDS011;67558;52.166;5.004;2023-03-23T03:57:17;5.38;;;4.93;;
71383;SDS011;67558;52.166;5.004;2023-03-23T03:59:43;10.57;;;5.20;;
71383;SDS011;67558;52.166;5.004;2023-03-23T04:02:09;5.60;;;5.15;;
71383;SDS011;67558;52.166;5.004;2023-03-23T04:04:38;6.70;;;6.20;;
71383;SDS011;67558;52.166;5.004;2023-03-23T04:07:03;4.72;;;4.43;;
71383;SDS011;67558;52.166;5.004;2023-03-23T04:09:30;5.90;;;5.53;;
71383;SDS011;67558;52.166;5.004;2023-03-23T04:11:56;5.32;;;4.80;;
71383;SDS011;67558;52.166;5.004;2023-03-23T04:14:21;5.65;;;5.18;;
71383;SDS011;67558;52.166;5.004;2023-03-23T04:16:47;4.90;;;4.53;;
71383;SDS011;67558;52.166;5.004;2023-03-23T04:19:12;5.25;;;4.85;;
71383;SDS011;67558;52.166;5.004;2023-03-23T04:21:37;4.97;;;4.57;;
71383;SDS011;67558;52.166;5.004;2023-03-23T04:24:03;5.53;;;5.22;;
71383;SDS011;67558;52.166;5.004;2023-03-23T04:26:29;4.60;;;4.22;;
71383;SDS011;67558;52.166;5.004;2023-03-23T04:28:55;5.32;;;4.93;;
71383;SDS011;67558;52.166;5.004;2023-03-23T04:31:22;5.53;;;5.05;;
71383;SDS011;67558;52.166;5.004;2023-03-23T04:33:49;5.30;;;4.85;;
71383;SDS011;67558;52.166;5.004;2023-03-23T04:36:17;4.90;;;4.50;;
71383;SDS011;67558;52.166;5.004;2023-03-23T04:38:44;7.15;;;4.75;;
71383;SDS011;67558;52.166;5.004;2023-03-23T04:41:10;6.50;;;5.15;;
71383;SDS011;67558;52.166;5.004;2023-03-23T04:43:36;6.95;;;6.32;;
71383;SDS011;67558;52.166;5.004;2023-03-23T04:46:06;5.50;;;5.20;;
71383;SDS011;67558;52.166;5.004;2023-03-23T04:48:34;8.30;;;5.75;;
71383;SDS011;67558;52.166;5.004;2023-03-23T04:51:03;5.15;;;4.75;;
71383;SDS011;67558;52.166;5.004;2023-03-23T04:53:29;3.97;;;3.78;;
71383;SDS011;67558;52.166;5.004;2023-03-23T04:55:55;4.97;;;4.05;;
71383;SDS011;67558;52.166;5.004;2023-03-23T04:58:21;5.60;;;3.92;;
71383;SDS011;67558;52.166;5.004;2023-03-23T05:00:48;4.70;;;4.47;;
71383;SDS011;67558;52.166;5.004;2023-03-23T05:03:14;5.38;;;4.95;;
71383;SDS011;67558;52.166;5.004;2023-03-23T05:05:41;4.45;;;4.05;;
71383;SDS011;67558;52.166;5.004;2023-03-23T05:08:07;5.72;;;4.88;;
71383;SDS011;67558;52.166;5.004;2023-03-23T05:10:32;5.72;;;5.30;;
71383;SDS011;67558;52.166;5.004;2023-03-23T05:12:58;6.05;;;5.07;;
71383;SDS011;67558;52.166;5.004;2023-03-23T05:15:23;6.18;;;4.82;;
71383;SDS011;67558;52.166;5.004;2023-03-23T05:17:50;4.07;;;3.85;;
71383;SDS011;67558;52.166;5.004;2023-03-23T05:20:17;4.82;;;4.40;;
71383;SDS011;67558;52.166;5.004;2023-03-23T05:22:46;4.38;;;3.97;;
71383;SDS011;67558;52.166;5.004;2023-03-23T05:25:15;4.40;;;4.15;;
71383;SDS011;67558;52.166;5.004;2023-03-23T05:27:43;5.47;;;4.97;;
71383;SDS011;67558;52.166;5.004;2023-03-23T05:30:13;5.18;;;4.88;;
71383;SDS011;67558;52.166;5.004;2023-03-23T05:32:43;4.78;;;4.47;;
71383;SDS011;67558;52.166;5.004;2023-03-23T05:35:10;7.00;;;5.20;;
71383;SDS011;67558;52.166;5.004;2023-03-23T05:37:36;5.82;;;4.95;;
71383;SDS011;67558;52.166;5.004;2023-03-23T05:40:02;6.78;;;5.22;;
71383;SDS011;67558;52.166;5.004;2023-03-23T05:42:32;4.90;;;4.50;;
71383;SDS011;67558;52.166;5.004;2023-03-23T05:44:59;7.05;;;4.63;;
71383;SDS011;67558;52.166;5.004;2023-03-23T05:47:25;8.30;;;3.72;;
71383;SDS011;67558;52.166;5.004;2023-03-23T05:49:52;6.13;;;3.83;;
71383;SDS011;67558;52.166;5.004;2023-03-23T05:52:17;7.80;;;4.05;;
71383;SDS011;67558;52.166;5.004;2023-03-23T05:54:43;5.50;;;4.35;;
71383;SDS011;67558;52.166;5.004;2023-03-23T05:57:09;7.88;;;5.00;;
71383;SDS011;67558;52.166;5.004;2023-03-23T05:59:35;8.23;;;5.28;;
71383;SDS011;67558;52.166;5.004;2023-03-23T06:02:00;4.60;;;3.95;;
71383;SDS011;67558;52.166;5.004;2023-03-23T06:04:26;5.25;;;4.85;;
71383;SDS011;67558;52.166;5.004;2023-03-23T06:06:52;5.95;;;4.03;;
71383;SDS011;67558;52.166;5.004;2023-03-23T06:09:18;5.28;;;4.88;;
71383;SDS011;67558;52.166;5.004;2023-03-23T06:11:44;5.90;;;4.70;;
71383;SDS011;67558;52.166;5.004;2023-03-23T06:14:10;5.40;;;4.60;;
71383;SDS011;67558;52.166;5.004;2023-03-23T06:16:35;5.18;;;4.47;;
71383;SDS011;67558;52.166;5.004;2023-03-23T06:19:01;4.22;;;4.00;;
71383;SDS011;67558;52.166;5.004;2023-03-23T06:21:29;5.05;;;4.55;;
71383;SDS011;67558;52.166;5.004;2023-03-23T06:23:57;5.45;;;4.63;;
71383;SDS011;67558;52.166;5.004;2023-03-23T06:26:24;6.85;;;5.68;;
71383;SDS011;67558;52.166;5.004;2023-03-23T06:29:03;7.18;;;5.20;;
71383;SDS011;67558;52.166;5.004;2023-03-23T06:31:43;4.68;;;4.22;;
71383;SDS011;67558;52.166;5.004;2023-03-23T06:34:12;6.72;;;6.13;;
71383;SDS011;67558;52.166;5.004;2023-03-23T06:36:38;5.38;;;4.97;;
71383;SDS011;67558;52.166;5.004;2023-03-23T06:39:04;5.93;;;5.25;;
71383;SDS011;67558;52.166;5.004;2023-03-23T06:41:34;6.25;;;5.72;;
71383;SDS011;67558;52.166;5.004;2023-03-23T06:44:01;8.75;;;5.63;;
71383;SDS011;67558;52.166;5.004;2023-03-23T06:46:27;5.07;;;4.43;;
71383;SDS011;67558;52.166;5.004;2023-03-23T06:48:54;9.82;;;4.50;;
71383;SDS011;67558;52.166;5.004;2023-03-23T06:51:20;10.73;;;6.88;;
71383;SDS011;67558;52.166;5.004;2023-03-23T06:53:46;8.10;;;5.68;;
71383;SDS011;67558;52.166;5.004;2023-03-23T06:56:12;6.78;;;5.22;;
71383;SDS011;67558;52.166;5.004;2023-03-23T06:58:38;9.40;;;5.75;;
71383;SDS011;67558;52.166;5.004;2023-03-23T07:01:04;6.28;;;5.72;;
71383;SDS011;67558;52.166;5.004;2023-03-23T07:03:31;5.10;;;4.70;;
71383;SDS011;67558;52.166;5.004;2023-03-23T07:05:57;10.60;;;6.68;;
71383;SDS011;67558;52.166;5.004;2023-03-23T07:08:27;8.85;;;5.03;;
71383;SDS011;67558;52.166;5.004;2023-03-23T07:10:53;11.77;;;8.27;;
71383;SDS011;67558;52.166;5.004;2023-03-23T07:13:20;7.97;;;4.57;;
71383;SDS011;67558;52.166;5.004;2023-03-23T07:15:46;5.88;;;5.32;;
71383;SDS011;67558;52.166;5.004;2023-03-23T07:18:13;7.00;;;5.55;;
71383;SDS011;67558;52.166;5.004;2023-03-23T07:20:39;5.78;;;5.38;;
71383;SDS011;67558;52.166;5.004;2023-03-23T07:23:05;9.10;;;4.63;;
71383;SDS011;67558;52.166;5.004;2023-03-23T07:25:34;5.30;;;4.75;;
71383;SDS011;67558;52.166;5.004;2023-03-23T07:28:01;6.53;;;5.20;;
71383;SDS011;67558;52.166;5.004;2023-03-23T07:30:29;8.48;;;5.13;;
71383;SDS011;67558;52.166;5.004;2023-03-23T07:32:56;4.72;;;4.32;;
71383;SDS011;67558;52.166;5.004;2023-03-23T07:35:22;6.93;;;5.47;;
71383;SDS011;67558;52.166;5.004;2023-03-23T07:37:49;5.20;;;4.82;;
71383;SDS011;67558;52.166;5.004;2023-03-23T07:40:17;9.98;;;5.32;;
71383;SDS011;67558;52.166;5.004;2023-03-23T07:42:46;6.78;;;6.22;;
71383;SDS011;67558;52.166;5.004;2023-03-23T07:45:17;6.30;;;5.28;;
71383;SDS011;67558;52.166;5.004;2023-03-23T07:47:43;7.20;;;4.60;;
71383;SDS011;67558;52.166;5.004;2023-03-23T07:50:09;7.00;;;5.85;;
71383;SDS011;67558;52.166;5.004;2023-03-23T07:52:35;8.60;;;5.60;;
71383;SDS011;67558;52.166;5.004;2023-03-23T07:55:02;7.20;;;5.32;;
71383;SDS011;67558;52.166;5.004;2023-03-23T07:57:30;7.95;;;5.47;;
71383;SDS011;67558;52.166;5.004;2023-03-23T07:59:56;5.47;;;5.07;;
71383;SDS011;67558;52.166;5.004;2023-03-23T08:02:23;5.47;;;5.07;;
71383;SDS011;67558;52.166;5.004;2023-03-23T08:04:50;5.07;;;4.53;;
71383;SDS011;67558;52.166;5.004;2023-03-23T08:07:16;5.63;;;5.32;;
71383;SDS011;67558;52.166;5.004;2023-03-23T08:09:45;6.00;;;5.50;;
71383;SDS011;67558;52.166;5.004;2023-03-23T08:12:13;6.05;;;5.47;;
71383;SDS011;67558;52.166;5.004;2023-03-23T08:14:39;7.95;;;7.25;;
71383;SDS011;67558;52.166;5.004;2023-03-23T08:17:07;8.10;;;6.13;;
71383;SDS011;67558;52.166;5.004;2023-03-23T08:19:34;5.85;;;5.25;;
71383;SDS011;67558;52.166;5.004;2023-03-23T08:22:06;5.95;;;5.38;;
71383;SDS011;67558;52.166;5.004;2023-03-23T08:24:32;7.82;;;5.90;;
71383;SDS011;67558;52.166;5.004;2023-03-23T08:26:58;9.80;;;6.07;;
71383;SDS011;67558;52.166;5.004;2023-03-23T08:29:25;6.75;;;6.13;;
71383;SDS011;67558;52.166;5.004;2023-03-23T08:31:52;8.48;;;5.90;;
71383;SDS011;67558;52.166;5.004;2023-03-23T08:34:19;7.72;;;6.30;;
71383;SDS011;67558;52.166;5.004;2023-03-23T08:36:46;6.20;;;5.05;;
71383;SDS011;67558;52.166;5.004;2023-03-23T08:39:12;6.53;;;5.93;;
71383;SDS011;67558;52.166;5.004;2023-03-23T08:41:44;8.75;;;7.07;;
71383;SDS011;67558;52.166;5.004;2023-03-23T08:44:10;5.32;;;5.13;;
71383;SDS011;67558;52.166;5.004;2023-03-23T08:46:38;5.20;;;4.63;;
71383;SDS011;67558;52.166;5.004;2023-03-23T08:49:05;9.27;;;7.05;;
71383;SDS011;67558;52.166;5.004;2023-03-23T08:51:31;8.35;;;6.22;;
71383;SDS011;67558;52.166;5.004;2023-03-23T08:53:57;7.15;;;6.47;;
71383;SDS011;67558;52.166;5.004;2023-03-23T08:56:23;6.45;;;6.03;;
71383;SDS011;67558;52.166;5.004;2023-03-23T08:58:49;6.97;;;6.25;;
71383;SDS011;67558;52.166;5.004;2023-03-23T09:01:14;8.80;;;8.02;;
71383;SDS011;67558;52.166;5.004;2023-03-23T09:03:40;6.90;;;6.30;;
71383;SDS011;67558;52.166;5.004;2023-03-23T09:06:07;11.93;;;10.90;;
71383;SDS011;67558;52.166;5.004;2023-03-23T09:08:34;9.77;;;6.95;;
71383;SDS011;67558;52.166;5.004;2023-03-23T09:11:05;7.68;;;5.75;;
71383;SDS011;67558;52.166;5.004;2023-03-23T09:13:34;9.77;;;7.10;;
71383;SDS011;67558;52.166;5.004;2023-03-23T09:16:01;7.32;;;6.53;;
71383;SDS011;67558;52.166;5.004;2023-03-23T09:18:28;7.22;;;6.05;;
71383;SDS011;67558;52.166;5.004;2023-03-23T09:20:54;6.88;;;6.28;;
71383;SDS011;67558;52.166;5.004;2023-03-23T09:23:20;8.65;;;7.82;;
71383;SDS011;67558;52.166;5.004;2023-03-23T09:25:46;7.93;;;6.18;;
71383;SDS011;67558;52.166;5.004;2023-03-23T09:28:12;7.75;;;6.97;;
71383;SDS011;67558;52.166;5.004;2023-03-23T09:30:38;7.15;;;6.88;;
71383;SDS011;67558;52.166;5.004;2023-03-23T09:33:06;8.98;;;7.45;;
71383;SDS011;67558;52.166;5.004;2023-03-23T09:35:33;8.77;;;7.82;;
71383;SDS011;67558;52.166;5.004;2023-03-23T09:38:01;8.88;;;8.05;;
71383;SDS011;67558;52.166;5.004;2023-03-23T09:40:45;8.80;;;7.13;;
71383;SDS011;67558;52.166;5.004;2023-03-23T09:48:55;7.50;;;6.90;;
71383;SDS011;67558;52.166;5.004;2023-03-23T09:56:54;7.85;;;7.35;;
71383;SDS011;67558;52.166;5.004;2023-03-23T09:59:29;8.80;;;8.00;;
71383;SDS011;67558;52.166;5.004;2023-03-23T10:04:54;10.63;;;8.27;;
71383;SDS011;67558;52.166;5.004;2023-03-23T10:07:25;8.40;;;7.65;;
71383;SDS011;67558;52.166;5.004;2023-03-23T10:09:54;8.32;;;7.10;;
71383;SDS011;67558;52.166;5.004;2023-03-23T10:12:26;8.20;;;7.45;;
71383;SDS011;67558;52.166;5.004;2023-03-23T10:15:07;7.32;;;6.65;;
71383;SDS011;67558;52.166;5.004;2023-03-23T10:20:57;8.13;;;7.45;;
71383;SDS011;67558;52.166;5.004;2023-03-23T10:23:35;8.52;;;7.85;;
71383;SDS011;67558;52.166;5.004;2023-03-23T10:26:25;8.25;;;7.43;;
71383;SDS011;67558;52.166;5.004;2023-03-23T10:28:54;8.45;;;7.75;;
71383;SDS011;67558;52.166;5.004;2023-03-23T10:31:24;9.10;;;8.23;;
71383;SDS011;67558;52.166;5.004;2023-03-23T10:33:59;9.38;;;8.63;;
71383;SDS011;67558;52.166;5.004;2023-03-23T10:36:51;8.85;;;7.55;;
71383;SDS011;67558;52.166;5.004;2023-03-23T10:39:22;8.10;;;7.28;;
71383;SDS011;67558;52.166;5.004;2023-03-23T10:41:51;13.93;;;7.82;;
71383;SDS011;67558;52.166;5.004;2023-03-23T10:44:19;8.63;;;7.88;;
71383;SDS011;67558;52.166;5.004;2023-03-23T10:46:58;11.13;;;7.53;;
71383;SDS011;67558;52.166;5.004;2023-03-23T10:49:37;7.93;;;7.18;;
71383;SDS011;67558;52.166;5.004;2023-03-23T10:52:23;9.75;;;8.23;;
71383;SDS011;67558;52.166;5.004;2023-03-23T10:57:37;9.32;;;8.15;;
71383;SDS011;67558;52.166;5.004;2023-03-23T11:00:07;7.35;;;6.65;;
71383;SDS011;67558;52.166;5.004;2023-03-23T11:02:47;9.43;;;8.48;;
71383;SDS011;67558;52.166;5.004;2023-03-23T11:05:24;10.10;;;9.32;;
71383;SDS011;67558;52.166;5.004;2023-03-23T11:07:54;8.02;;;7.07;;
71383;SDS011;67558;52.166;5.004;2023-03-23T11:10:27;9.82;;;9.07;;
71383;SDS011;67558;52.166;5.004;2023-03-23T11:12:59;9.65;;;8.85;;
71383;SDS011;67558;52.166;5.004;2023-03-23T11:15:30;9.98;;;8.90;;
71383;SDS011;67558;52.166;5.004;2023-03-23T11:18:02;10.25;;;9.35;;
71383;SDS011;67558;52.166;5.004;2023-03-23T11:20:32;9.52;;;8.65;;
71383;SDS011;67558;52.166;5.004;2023-03-23T11:23:07;9.00;;;8.30;;
71383;SDS011;67558;52.166;5.004;2023-03-23T11:28:36;10.30;;;9.50;;
71383;SDS011;67558;52.166;5.004;2023-03-23T11:31:06;8.75;;;8.00;;
71383;SDS011;67558;52.166;5.004;2023-03-23T11:33:36;10.70;;;8.77;;
71383;SDS011;67558;52.166;5.004;2023-03-23T11:36:05;9.40;;;8.70;;
71383;SDS011;67558;52.166;5.004;2023-03-23T11:38:34;9.45;;;8.55;;
71383;SDS011;67558;52.166;5.004;2023-03-23T11:41:01;9.60;;;9.00;;
71383;SDS011;67558;52.166;5.004;2023-03-23T11:43:27;9.07;;;8.25;;
71383;SDS011;67558;52.166;5.004;2023-03-23T11:45:58;11.02;;;9.38;;
71383;SDS011;67558;52.166;5.004;2023-03-23T11:51:37;8.07;;;7.70;;
71383;SDS011;67558;52.166;5.004;2023-03-23T11:56:58;8.98;;;7.95;;
71383;SDS011;67558;52.166;5.004;2023-03-23T11:59:28;8.98;;;8.27;;
71383;SDS011;67558;52.166;5.004;2023-03-23T12:05:10;10.48;;;9.85;;
71383;SDS011;67558;52.166;5.004;2023-03-23T12:21:25;8.55;;;8.25;;
71383;SDS011;67558;52.166;5.004;2023-03-23T12:35:32;8.43;;;7.57;;
71383;SDS011;67558;52.166;5.004;2023-03-23T12:38:36;9.35;;;8.50;;
71383;SDS011;67558;52.166;5.004;2023-03-23T12:52:19;8.07;;;7.38;;
71383;SDS011;67558;52.166;5.004;2023-03-23T12:57:39;8.70;;;7.88;;
71383;SDS011;67558;52.166;5.004;2023-03-23T13:00:14;9.98;;;9.15;;
71383;SDS011;67558;52.166;5.004;2023-03-23T13:05:38;8.65;;;8.10;;
71383;SDS011;67558;52.166;5.004;2023-03-23T13:08:16;10.40;;;7.93;;
71383;SDS011;67558;52.166;5.004;2023-03-23T13:10:47;8.65;;;8.05;;
71383;SDS011;67558;52.166;5.004;2023-03-23T13:13:39;7.85;;;7.43;;
71383;SDS011;67558;52.166;5.004;2023-03-23T13:21:29;8.88;;;7.72;;
71383;SDS011;67558;52.166;5.004;2023-03-23T13:24:06;9.13;;;8.65;;
71383;SDS011;67558;52.166;5.004;2023-03-23T13:26:42;10.75;;;10.23;;
71383;SDS011;67558;52.166;5.004;2023-03-23T13:31:34;8.18;;;7.85;;
71383;SDS011;67558;52.166;5.004;2023-03-23T13:34:18;10.73;;;9.88;;
71383;SDS011;67558;52.166;5.004;2023-03-23T13:39:28;9.02;;;8.07;;
71383;SDS011;67558;52.166;5.004;2023-03-23T13:42:29;8.65;;;7.70;;
71383;SDS011;67558;52.166;5.004;2023-03-23T13:47:36;8.07;;;7.43;;
71383;SDS011;67558;52.166;5.004;2023-03-23T13:50:11;7.78;;;7.30;;
71383;SDS011;67558;52.166;5.004;2023-03-23T13:58:26;11.77;;;10.77;;
71383;SDS011;67558;52.166;5.004;2023-03-23T14:01:08;11.05;;;10.32;;
71383;SDS011;67558;52.166;5.004;2023-03-23T14:03:53;10.35;;;9.20;;
71383;SDS011;67558;52.166;5.004;2023-03-23T14:06:21;9.32;;;8.48;;
71383;SDS011;67558;52.166;5.004;2023-03-23T14:08:50;11.30;;;9.38;;
71383;SDS011;67558;52.166;5.004;2023-03-23T14:11:29;8.98;;;8.25;;
71383;SDS011;67558;52.166;5.004;2023-03-23T14:16:39;16.45;;;15.50;;
71383;SDS011;67558;52.166;5.004;2023-03-23T14:21:55;10.45;;;7.78;;
71383;SDS011;67558;52.166;5.004;2023-03-23T14:24:24;8.98;;;8.13;;
71383;SDS011;67558;52.166;5.004;2023-03-23T14:29:58;7.75;;;7.15;;
71383;SDS011;67558;52.166;5.004;2023-03-23T14:32:25;8.15;;;7.55;;
71383;SDS011;67558;52.166;5.004;2023-03-23T14:34:54;7.55;;;6.93;;
71383;SDS011;67558;52.166;5.004;2023-03-23T14:37:20;8.63;;;7.68;;
71383;SDS011;67558;52.166;5.004;2023-03-23T14:39:47;11.00;;;10.25;;
71383;SDS011;67558;52.166;5.004;2023-03-23T14:42:17;8.88;;;8.25;;
71383;SDS011;67558;52.166;5.004;2023-03-23T14:44:52;8.98;;;8.20;;
71383;SDS011;67558;52.166;5.004;2023-03-23T14:47:23;9.40;;;8.57;;
71383;SDS011;67558;52.166;5.004;2023-03-23T14:49:59;10.73;;;9.63;;
71383;SDS011;67558;52.166;5.004;2023-03-23T14:52:32;9.55;;;8.85;;
71383;SDS011;67558;52.166;5.004;2023-03-23T14:55:13;14.23;;;9.50;;
71383;SDS011;67558;52.166;5.004;2023-03-23T14:57:41;8.68;;;7.78;;
71383;SDS011;67558;52.166;5.004;2023-03-23T15:00:14;11.30;;;10.65;;
71383;SDS011;67558;52.166;5.004;2023-03-23T15:02:51;7.95;;;7.38;;
71383;SDS011;67558;52.166;5.004;2023-03-23T15:05:30;11.60;;;10.02;;
71383;SDS011;67558;52.166;5.004;2023-03-23T15:08:02;10.70;;;10.10;;
71383;SDS011;67558;52.166;5.004;2023-03-23T15:10:32;10.50;;;9.68;;
71383;SDS011;67558;52.166;5.004;2023-03-23T15:12:58;10.38;;;9.50;;
71383;SDS011;67558;52.166;5.004;2023-03-23T15:15:27;9.70;;;8.82;;
71383;SDS011;67558;52.166;5.004;2023-03-23T15:17:56;9.88;;;7.60;;
71383;SDS011;67558;52.166;5.004;2023-03-23T15:20:25;8.50;;;7.95;;
71383;SDS011;67558;52.166;5.004;2023-03-23T15:22:55;11.25;;;10.10;;
71383;SDS011;67558;52.166;5.004;2023-03-23T15:27:54;10.95;;;8.80;;
71383;SDS011;67558;52.166;5.004;2023-03-23T15:32:47;8.57;;;7.85;;
71383;SDS011;67558;52.166;5.004;2023-03-23T15:35:18;8.50;;;7.75;;
71383;SDS011;67558;52.166;5.004;2023-03-23T15:37:46;8.02;;;7.60;;
71383;SDS011;67558;52.166;5.004;2023-03-23T15:40:16;8.60;;;7.95;;
71383;SDS011;67558;52.166;5.004;2023-03-23T15:42:43;9.18;;;7.30;;
71383;SDS011;67558;52.166;5.004;2023-03-23T15:48:08;9.10;;;8.13;;
71383;SDS011;67558;52.166;5.004;2023-03-23T15:50:39;10.88;;;9.73;;
71383;SDS011;67558;52.166;5.004;2023-03-23T15:53:48;10.35;;;9.63;;
71383;SDS011;67558;52.166;5.004;2023-03-23T15:56:03;9.48;;;8.13;;
71383;SDS011;67558;52.166;5.004;2023-03-23T15:58:31;11.13;;;9.48;;
71383;SDS011;67558;52.166;5.004;2023-03-23T16:00:58;13.57;;;10.23;;
71383;SDS011;67558;52.166;5.004;2023-03-23T16:03:27;8.90;;;7.85;;
71383;SDS011;67558;52.166;5.004;2023-03-23T16:06:00;16.63;;;15.77;;
71383;SDS011;67558;52.166;5.004;2023-03-23T16:08:28;11.00;;;9.13;;
71383;SDS011;67558;52.166;5.004;2023-03-23T16:10:54;9.32;;;8.48;;
71383;SDS011;67558;52.166;5.004;2023-03-23T16:13:20;13.88;;;9.35;;
71383;SDS011;67558;52.166;5.004;2023-03-23T16:15:48;8.88;;;8.32;;
71383;SDS011;67558;52.166;5.004;2023-03-23T16:18:20;9.48;;;8.10;;
71383;SDS011;67558;52.166;5.004;2023-03-23T16:20:47;11.55;;;7.10;;
71383;SDS011;67558;52.166;5.004;2023-03-23T16:23:13;14.38;;;13.50;;
71383;SDS011;67558;52.166;5.004;2023-03-23T16:25:40;9.23;;;8.63;;
71383;SDS011;67558;52.166;5.004;2023-03-23T16:28:08;8.90;;;8.10;;
71383;SDS011;67558;52.166;5.004;2023-03-23T16:30:36;11.18;;;7.75;;
71383;SDS011;67558;52.166;5.004;2023-03-23T16:33:02;8.68;;;8.00;;
71383;SDS011;67558;52.166;5.004;2023-03-23T16:35:27;9.60;;;8.82;;
71383;SDS011;67558;52.166;5.004;2023-03-23T16:37:53;12.35;;;8.93;;
71383;SDS011;67558;52.166;5.004;2023-03-23T16:40:21;8.98;;;8.27;;
71383;SDS011;67558;52.166;5.004;2023-03-23T16:42:47;13.73;;;12.73;;
71383;SDS011;67558;52.166;5.004;2023-03-23T16:45:14;13.90;;;7.43;;
71383;SDS011;67558;52.166;5.004;2023-03-23T16:47:40;7.55;;;6.80;;
71383;SDS011;67558;52.166;5.004;2023-03-23T16:50:08;8.73;;;7.90;;
71383;SDS011;67558;52.166;5.004;2023-03-23T16:52:36;12.52;;;7.85;;
71383;SDS011;67558;52.166;5.004;2023-03-23T16:55:02;8.00;;;7.35;;
71383;SDS011;67558;52.166;5.004;2023-03-23T16:57:28;9.10;;;7.55;;
71383;SDS011;67558;52.166;5.004;2023-03-23T16:59:55;9.68;;;7.22;;
71383;SDS011;67558;52.166;5.004;2023-03-23T17:02:23;8.25;;;7.65;;
71383;SDS011;67558;52.166;5.004;2023-03-23T17:04:49;9.38;;;8.55;;
71383;SDS011;67558;52.166;5.004;2023-03-23T17:07:14;9.20;;;7.20;;